createdAt,value
2023-02-27T00:00:15.223Z,103071.63
2023-02-27T00:02:47.595Z,103070.59
2023-02-27T00:05:15.126Z,103072.50
2023-02-27T00:07:42.672Z,103073.91
2023-02-27T00:10:11.246Z,103075.81
2023-02-27T00:12:39.182Z,103080.47
2023-02-27T00:15:07.492Z,103074.38
2023-02-27T00:17:34.774Z,103082.13
2023-02-27T00:20:01.724Z,103079.34
2023-02-27T00:22:28.946Z,103079.41
2023-02-27T00:24:56.073Z,103071.13
2023-02-27T00:27:23.401Z,103070.03
2023-02-27T00:29:51.380Z,103067.75
2023-02-27T00:32:19.157Z,103069.44
2023-02-27T00:34:47.403Z,103079.38
2023-02-27T00:37:14.419Z,103078.28
2023-02-27T00:39:41.832Z,103073.00
2023-02-27T00:42:09.358Z,103068.06
2023-02-27T00:44:36.670Z,103070.84
2023-02-27T00:47:03.899Z,103074.38
2023-02-27T00:49:32.648Z,103083.81
2023-02-27T00:52:00.261Z,103074.06
2023-02-27T00:54:27.405Z,103074.75
2023-02-27T00:56:54.742Z,103074.41
2023-02-27T00:59:22.211Z,103080.16
2023-02-27T01:01:49.464Z,103079.38
2023-02-27T01:04:16.568Z,103077.47
2023-02-27T01:06:43.643Z,103072.03
2023-02-27T01:09:11.153Z,103078.13
2023-02-27T01:11:38.230Z,103075.03
2023-02-27T01:14:05.403Z,103066.75
2023-02-27T01:16:32.612Z,103073.88
2023-02-27T01:19:00.042Z,103074.69
2023-02-27T01:21:27.223Z,103063.88
2023-02-27T01:23:54.429Z,103064.66
2023-02-27T01:26:21.377Z,103063.75
2023-02-27T01:28:48.624Z,103069.06
2023-02-27T01:31:15.885Z,103063.22
2023-02-27T01:33:43.030Z,103061.00
2023-02-27T01:36:10.224Z,103064.09
2023-02-27T01:38:37.523Z,103063.56
2023-02-27T01:41:07.350Z,103057.38
2023-02-27T01:43:35.284Z,103054.41
2023-02-27T01:46:02.245Z,103050.69
2023-02-27T01:48:29.172Z,103053.38
2023-02-27T01:51:01.758Z,103061.31
2023-02-27T01:53:30.766Z,103047.75
2023-02-27T01:56:01.323Z,103052.38
2023-02-27T01:58:29.782Z,103053.16
2023-02-27T02:00:57.249Z,103050.41
2023-02-27T02:03:38.067Z,103060.81
2023-02-27T02:06:07.423Z,103054.44
2023-02-27T02:08:41.386Z,103060.50
2023-02-27T02:11:09.317Z,103059.91
2023-02-27T02:13:37.572Z,103065.88
2023-02-27T02:16:32.092Z,103058.50
2023-02-27T02:19:23.903Z,103063.69
2023-02-27T02:22:38.627Z,103065.00
2023-02-27T02:25:39.926Z,103062.84
2023-02-27T02:28:44.562Z,103062.53
2023-02-27T02:31:11.469Z,103064.44
2023-02-27T02:34:05.446Z,103066.56
2023-02-27T02:37:03.194Z,103063.50
2023-02-27T02:39:49.153Z,103063.53
2023-02-27T02:42:28.537Z,103066.66
2023-02-27T02:45:15.740Z,103069.41
2023-02-27T02:47:52.033Z,103070.56
2023-02-27T02:50:22.743Z,103066.06
2023-02-27T02:53:19.104Z,103074.38
2023-02-27T02:56:24.987Z,103075.28
2023-02-27T02:59:08.132Z,103074.31
2023-02-27T03:01:54.403Z,103069.50
2023-02-27T03:04:29.162Z,103073.47
2023-02-27T03:07:13.615Z,103079.72
2023-02-27T03:09:45.682Z,103081.22
2023-02-27T03:12:14.764Z,103083.84
2023-02-27T03:14:47.885Z,103094.69
2023-02-27T03:17:35.084Z,103089.59
2023-02-27T03:20:09.357Z,103077.00
2023-02-27T03:22:39.194Z,103083.34
2023-02-27T03:25:08.525Z,103084.75
2023-02-27T03:27:45.289Z,103075.72
2023-02-27T03:30:22.936Z,103074.97
2023-02-27T03:33:01.863Z,103071.81
2023-02-27T03:35:49.477Z,103065.84
2023-02-27T03:38:23.687Z,103074.59
2023-02-27T03:41:22.896Z,103067.47
2023-02-27T03:44:28.685Z,103065.22
2023-02-27T03:46:56.145Z,103072.06
2023-02-27T03:49:23.492Z,103074.47
2023-02-27T03:51:50.647Z,103083.22
2023-02-27T03:54:21.776Z,103077.22
2023-02-27T03:57:04.996Z,103079.97
2023-02-27T03:59:32.944Z,103074.66
2023-02-27T04:02:01.266Z,103075.41
2023-02-27T04:04:32.376Z,103076.72
2023-02-27T04:07:37.730Z,103079.91
2023-02-27T04:10:28.425Z,103083.47
2023-02-27T04:13:01.220Z,103091.09
2023-02-27T04:15:40.816Z,103092.06
2023-02-27T04:18:10.689Z,103096.31
2023-02-27T04:21:16.319Z,103098.06
2023-02-27T04:24:11.875Z,103104.84
2023-02-27T04:27:02.927Z,103102.00
2023-02-27T04:29:54.802Z,103105.31
2023-02-27T04:32:25.823Z,103118.41
2023-02-27T04:34:57.724Z,103111.00
2023-02-27T04:37:34.102Z,103114.59
2023-02-27T04:40:06.234Z,103116.91
2023-02-27T04:42:36.258Z,103113.72
2023-02-27T04:45:06.404Z,103121.47
2023-02-27T04:47:47.344Z,103115.84
2023-02-27T04:50:19.827Z,103115.06
2023-02-27T04:52:53.685Z,103114.06
2023-02-27T04:55:24.698Z,103110.81
2023-02-27T04:57:57.621Z,103105.00
2023-02-27T05:00:26.130Z,103110.44
2023-02-27T05:03:16.337Z,103109.66
2023-02-27T05:05:44.306Z,103110.50
2023-02-27T05:08:21.746Z,103117.91
2023-02-27T05:10:59.330Z,103115.25
2023-02-27T05:13:36.533Z,103115.41
2023-02-27T05:16:13.753Z,103123.41
2023-02-27T05:18:40.812Z,103114.59
2023-02-27T05:21:13.760Z,103119.97
2023-02-27T05:23:40.785Z,103121.16
2023-02-27T05:26:17.305Z,103123.41
2023-02-27T05:28:50.511Z,103126.91
2023-02-27T05:31:44.085Z,103126.06
2023-02-27T05:34:18.115Z,103122.59
2023-02-27T05:36:52.555Z,103123.31
2023-02-27T05:39:21.784Z,103129.56
2023-02-27T05:41:52.607Z,103131.16
2023-02-27T05:44:23.378Z,103137.31
2023-02-27T05:46:56.757Z,103134.31
2023-02-27T05:49:46.057Z,103136.81
2023-02-27T05:52:16.928Z,103130.75
2023-02-27T05:54:50.643Z,103131.31
2023-02-27T05:57:23.196Z,103138.16
2023-02-27T06:00:20.230Z,103138.72
2023-02-27T06:02:47.301Z,103142.69
2023-02-27T06:05:16.761Z,103145.88
2023-02-27T06:07:43.771Z,103144.25
2023-02-27T06:10:15.803Z,103145.53
2023-02-27T06:12:42.982Z,103147.66
2023-02-27T06:15:10.410Z,103150.44
2023-02-27T06:17:38.134Z,103153.78
2023-02-27T06:20:07.021Z,103154.81
2023-02-27T06:22:34.532Z,103158.31
2023-02-27T06:25:02.164Z,103165.13
2023-02-27T06:27:29.245Z,103158.50
2023-02-27T06:29:57.762Z,103163.56
2023-02-27T06:32:26.035Z,103157.72
2023-02-27T06:34:53.820Z,103165.41
2023-02-27T06:37:21.999Z,103178.41
2023-02-27T06:39:49.241Z,103173.25
2023-02-27T06:42:17.048Z,103172.72
2023-02-27T06:44:44.770Z,103169.72
2023-02-27T06:47:11.948Z,103172.22
2023-02-27T06:49:39.214Z,103186.31
2023-02-27T06:52:06.516Z,103175.38
2023-02-27T06:54:34.263Z,103176.78
2023-02-27T06:57:01.548Z,103173.06
2023-02-27T06:59:28.426Z,103178.44
2023-02-27T07:01:55.597Z,103178.78
2023-02-27T07:04:22.785Z,103184.69
2023-02-27T07:07:34.420Z,103184.38
2023-02-27T07:09:37.509Z,103191.47
2023-02-27T07:12:05.248Z,103189.06
2023-02-27T07:14:32.519Z,103191.28
2023-02-27T07:17:03.387Z,103195.00
2023-02-27T07:19:35.873Z,103194.22
2023-02-27T07:22:03.579Z,103201.41
2023-02-27T07:24:30.347Z,103194.72
2023-02-27T07:26:57.347Z,103190.72
2023-02-27T07:29:24.208Z,103194.19
2023-02-27T07:31:51.572Z,103190.97
2023-02-27T07:34:18.644Z,103190.00
2023-02-27T07:36:46.022Z,103189.03
2023-02-27T07:39:13.619Z,103193.56
2023-02-27T07:41:40.525Z,103189.31
2023-02-27T07:44:08.880Z,103196.63
2023-02-27T07:46:36.208Z,103203.28
2023-02-27T07:49:03.119Z,103203.69
2023-02-27T07:51:30.034Z,103205.56
2023-02-27T07:53:58.656Z,103203.66
2023-02-27T07:56:27.009Z,103207.25
2023-02-27T07:58:53.909Z,103207.56
2023-02-27T08:01:20.952Z,103209.28
2023-02-27T08:03:48.120Z,103213.97
2023-02-27T08:06:15.084Z,103213.22
2023-02-27T08:08:42.358Z,103214.56
2023-02-27T08:11:09.533Z,103214.97
2023-02-27T08:16:23.841Z,103219.13
2023-02-27T08:18:50.583Z,103217.00
2023-02-27T08:21:17.532Z,103215.28
2023-02-27T08:23:44.362Z,103213.72
2023-02-27T08:26:11.566Z,103212.09
2023-02-27T08:28:38.326Z,103216.28
2023-02-27T08:31:07.016Z,103214.91
2023-02-27T08:33:34.470Z,103220.47
2023-02-27T08:36:01.492Z,103227.38
2023-02-27T08:38:28.467Z,103228.75
2023-02-27T08:40:55.787Z,103225.75
2023-02-27T08:43:23.606Z,103222.13
2023-02-27T08:45:51.631Z,103229.28
2023-02-27T08:48:18.817Z,103228.22
2023-02-27T08:50:46.632Z,103227.94
2023-02-27T08:53:14.165Z,103231.56
2023-02-27T08:55:42.216Z,103233.22
2023-02-27T08:58:10.498Z,103236.22
2023-02-27T09:00:37.308Z,103236.81
2023-02-27T09:03:04.374Z,103239.34
2023-02-27T09:05:35.422Z,103243.44
2023-02-27T09:08:03.313Z,103239.59
2023-02-27T09:10:32.192Z,103245.94
2023-02-27T09:12:59.691Z,103241.53
2023-02-27T09:15:26.756Z,103244.84
2023-02-27T09:17:56.679Z,103243.19
2023-02-27T09:20:23.806Z,103247.84
2023-02-27T09:22:50.938Z,103241.38
2023-02-27T09:25:18.061Z,103241.94
2023-02-27T09:27:45.683Z,103236.44
2023-02-27T09:30:13.038Z,103237.94
2023-02-27T09:32:40.023Z,103245.97
2023-02-27T09:35:07.466Z,103254.16
2023-02-27T09:37:34.488Z,103252.59
2023-02-27T09:40:01.940Z,103257.31
2023-02-27T09:42:36.090Z,103255.09
2023-02-27T09:45:06.228Z,103255.94
2023-02-27T09:47:40.374Z,103256.63
2023-02-27T09:50:12.064Z,103252.13
2023-02-27T09:52:39.609Z,103257.63
2023-02-27T09:55:12.517Z,103261.44
2023-02-27T09:58:08.488Z,103258.31
2023-02-27T10:00:49.160Z,103250.19
2023-02-27T10:03:31.457Z,103253.66
2023-02-27T10:06:06.250Z,103264.06
2023-02-27T10:08:50.409Z,103264.34
2023-02-27T10:11:24.076Z,103258.34
2023-02-27T10:14:29.791Z,103257.41
2023-02-27T10:16:58.139Z,103251.00
2023-02-27T10:19:31.825Z,103261.81
2023-02-27T10:22:00.422Z,103258.88
2023-02-27T10:24:41.482Z,103264.28
2023-02-27T10:27:14.692Z,103269.38
2023-02-27T10:29:41.807Z,103266.69
2023-02-27T10:32:25.775Z,103265.44
2023-02-27T10:35:06.628Z,103273.47
2023-02-27T10:37:34.416Z,103271.53
2023-02-27T10:40:04.862Z,103269.84
2023-02-27T10:42:35.705Z,103268.63
2023-02-27T10:45:05.132Z,103265.50
2023-02-27T10:47:32.765Z,103265.38
2023-02-27T10:50:00.481Z,103253.84
2023-02-27T10:52:27.535Z,103268.59
2023-02-27T10:54:54.459Z,103253.16
2023-02-27T10:57:41.307Z,103264.22
2023-02-27T11:00:25.204Z,103251.00
2023-02-27T11:02:52.719Z,103261.09
2023-02-27T11:05:29.917Z,103251.94
2023-02-27T11:07:59.888Z,103252.19
2023-02-27T11:10:28.581Z,103248.34
2023-02-27T11:13:05.606Z,103249.38
2023-02-27T11:15:37.775Z,103243.03
2023-02-27T11:18:31.401Z,103244.06
2023-02-27T11:21:12.176Z,103232.91
2023-02-27T11:23:52.134Z,103237.63
2023-02-27T11:26:34.659Z,103230.31
2023-02-27T11:29:15.356Z,103234.47
2023-02-27T11:31:48.395Z,103237.22
2023-02-27T11:34:21.943Z,103227.00
2023-02-27T11:36:50.862Z,103229.50
2023-02-27T11:39:35.719Z,103230.72
2023-02-27T11:42:26.833Z,103218.50
2023-02-27T11:44:57.616Z,103210.94
2023-02-27T11:47:32.157Z,103216.84
2023-02-27T11:50:09.156Z,103213.16
2023-02-27T11:52:50.932Z,103208.50
2023-02-27T11:55:21.942Z,103212.25
2023-02-27T11:57:54.943Z,103202.75
2023-02-27T12:00:59.113Z,103202.28
2023-02-27T12:03:31.880Z,103199.94
2023-02-27T12:06:00.159Z,103188.50
2023-02-27T12:08:46.112Z,103198.91
2023-02-27T12:11:45.484Z,103190.88
2023-02-27T12:14:21.684Z,103186.50
2023-02-27T12:16:54.652Z,103188.34
2023-02-27T12:19:32.032Z,103194.03
2023-02-27T12:22:15.802Z,103190.00
2023-02-27T12:24:49.234Z,103194.13
2023-02-27T12:27:38.453Z,103186.03
2023-02-27T12:30:20.356Z,103184.53
2023-02-27T12:32:54.224Z,103190.16
2023-02-27T12:35:28.724Z,103190.94
2023-02-27T12:37:56.386Z,103188.50
2023-02-27T12:40:31.298Z,103176.66
2023-02-27T12:43:23.593Z,103179.00
2023-02-27T12:45:56.869Z,103183.78
2023-02-27T12:48:36.966Z,103174.78
2023-02-27T12:51:22.123Z,103174.75
2023-02-27T12:54:23.960Z,103187.47
2023-02-27T12:56:56.921Z,103178.81
2023-02-27T12:59:45.691Z,103180.56
2023-02-27T13:02:32.911Z,103186.31
2023-02-27T13:05:16.454Z,103181.78
2023-02-27T13:08:08.795Z,103186.44
2023-02-27T13:11:06.306Z,103181.28
2023-02-27T13:13:46.861Z,103177.44
2023-02-27T13:16:30.921Z,103188.75
2023-02-27T13:19:06.932Z,103190.44
2023-02-27T13:21:38.742Z,103180.75
2023-02-27T13:24:11.958Z,103169.22
2023-02-27T13:26:43.132Z,103184.50
2023-02-27T13:29:17.543Z,103170.84
2023-02-27T13:32:02.067Z,103169.09
2023-02-27T13:34:48.636Z,103170.53
2023-02-27T13:37:15.776Z,103172.19
2023-02-27T13:39:53.017Z,103164.81
2023-02-27T13:42:26.303Z,103171.84
2023-02-27T13:45:01.565Z,103169.38
2023-02-27T13:47:31.958Z,103171.94
2023-02-27T13:50:25.631Z,103164.34
2023-02-27T13:52:52.962Z,103161.22
2023-02-27T13:55:40.105Z,103167.84
2023-02-27T13:58:17.046Z,103158.34
2023-02-27T14:00:54.454Z,103170.53
2023-02-27T14:03:25.920Z,103169.81
2023-02-27T14:05:55.267Z,103172.25
2023-02-27T14:08:46.463Z,103173.03
2023-02-27T14:11:23.371Z,103151.44
2023-02-27T14:13:50.286Z,103145.66
2023-02-27T14:16:42.156Z,103151.81
2023-02-27T14:19:26.216Z,103152.81
2023-02-27T14:22:13.089Z,103156.50
2023-02-27T14:25:00.972Z,103168.34
2023-02-27T14:27:51.122Z,103164.69
2023-02-27T14:30:37.034Z,103164.75
2023-02-27T14:33:14.154Z,103157.38
2023-02-27T14:35:46.001Z,103157.47
2023-02-27T14:38:15.952Z,103164.44
2023-02-27T14:41:23.378Z,103163.78
2023-02-27T14:43:56.527Z,103165.19
2023-02-27T14:46:29.011Z,103152.38
2023-02-27T14:48:58.367Z,103168.75
2023-02-27T14:51:25.730Z,103159.81
2023-02-27T14:54:25.952Z,103156.47
2023-02-27T14:57:07.140Z,103163.91
2023-02-27T14:59:41.813Z,103155.50
2023-02-27T15:02:28.638Z,103150.88
2023-02-27T15:05:13.663Z,103153.53
2023-02-27T15:07:40.743Z,103154.97
2023-02-27T15:10:10.396Z,103142.44
2023-02-27T15:12:38.334Z,103157.66
2023-02-27T15:15:07.838Z,103153.00
2023-02-27T15:17:40.449Z,103157.56
2023-02-27T15:20:31.867Z,103155.38
2023-02-27T15:23:22.883Z,103155.72
2023-02-27T15:25:49.854Z,103148.44
2023-02-27T15:28:22.776Z,103144.63
2023-02-27T15:30:51.349Z,103148.72
2023-02-27T15:33:18.933Z,103152.13
2023-02-27T15:35:46.417Z,103143.50
2023-02-27T15:38:42.300Z,103143.81
2023-02-27T15:41:10.789Z,103151.53
2023-02-27T15:43:37.507Z,103163.59
2023-02-27T15:46:04.681Z,103153.91
2023-02-27T15:48:32.541Z,103154.63
2023-02-27T15:51:01.049Z,103151.88
2023-02-27T15:53:30.308Z,103154.97
2023-02-27T15:56:04.385Z,103160.38
2023-02-27T15:58:34.278Z,103159.75
2023-02-27T16:01:08.909Z,103157.84
2023-02-27T16:03:55.966Z,103154.50
2023-02-27T16:06:32.654Z,103161.78
2023-02-27T16:09:03.631Z,103161.97
2023-02-27T16:11:35.448Z,103157.56
2023-02-27T16:14:02.430Z,103154.50
2023-02-27T16:16:38.817Z,103160.03
2023-02-27T16:19:29.571Z,103168.31
2023-02-27T16:22:04.369Z,103163.31
2023-02-27T16:24:34.675Z,103174.97
2023-02-27T16:27:01.903Z,103171.66
2023-02-27T16:29:35.457Z,103176.94
2023-02-27T16:32:02.757Z,103184.13
2023-02-27T16:34:44.545Z,103171.50
2023-02-27T16:37:31.465Z,103171.25
2023-02-27T16:39:58.333Z,103172.91
2023-02-27T16:42:25.802Z,103173.75
2023-02-27T16:44:53.483Z,103174.53
2023-02-27T16:47:20.438Z,103185.16
2023-02-27T16:49:47.734Z,103186.28
2023-02-27T16:52:14.695Z,103179.91
2023-02-27T16:54:41.369Z,103189.91
2023-02-27T16:57:09.697Z,103180.94
2023-02-27T16:59:39.967Z,103180.72
2023-02-27T17:02:13.456Z,103182.09
2023-02-27T17:04:44.250Z,103179.59
2023-02-27T17:07:15.983Z,103177.63
2023-02-27T17:09:47.201Z,103178.25
2023-02-27T17:12:14.355Z,103181.88
2023-02-27T17:14:41.217Z,103175.25
2023-02-27T17:17:08.115Z,103163.91
2023-02-27T17:19:35.183Z,103163.63
2023-02-27T17:22:02.327Z,103170.53
2023-02-27T17:24:29.860Z,103166.16
2023-02-27T17:26:56.835Z,103168.38
2023-02-27T17:29:24.388Z,103169.22
2023-02-27T17:31:51.668Z,103162.28
2023-02-27T17:34:18.801Z,103171.72
2023-02-27T17:36:45.830Z,103169.53
2023-02-27T17:39:14.390Z,103180.88
2023-02-27T17:41:42.989Z,103175.06
2023-02-27T17:44:11.668Z,103174.78
2023-02-27T17:46:39.405Z,103185.28
2023-02-27T17:49:06.629Z,103188.34
2023-02-27T17:51:33.818Z,103187.53
2023-02-27T17:54:02.219Z,103187.81
2023-02-27T17:56:29.797Z,103187.53
2023-02-27T17:58:58.095Z,103189.50
2023-02-27T18:01:26.363Z,103192.53
2023-02-27T18:03:54.916Z,103200.25
2023-02-27T18:06:23.241Z,103195.56
2023-02-27T18:08:50.428Z,103190.31
2023-02-27T18:11:19.479Z,103194.75
2023-02-27T18:13:47.177Z,103199.97
2023-02-27T18:16:14.628Z,103201.38
2023-02-27T18:18:42.793Z,103196.13
2023-02-27T18:21:11.574Z,103194.44
2023-02-27T18:23:38.978Z,103198.59
2023-02-27T18:26:05.991Z,103206.34
2023-02-27T18:28:33.035Z,103208.84
2023-02-27T18:31:00.297Z,103216.59
2023-02-27T18:33:27.592Z,103210.47
2023-02-27T18:35:54.752Z,103206.63
2023-02-27T18:38:21.523Z,103213.81
2023-02-27T18:40:48.965Z,103225.44
2023-02-27T18:43:16.251Z,103222.91
2023-02-27T18:45:43.407Z,103219.91
2023-02-27T18:48:10.409Z,103229.84
2023-02-27T18:50:37.390Z,103235.13
2023-02-27T18:53:05.224Z,103232.91
2023-02-27T18:55:32.040Z,103233.19
2023-02-27T18:57:59.216Z,103233.19
2023-02-27T19:00:26.299Z,103234.56
2023-02-27T19:02:53.415Z,103238.09
2023-02-27T19:05:20.490Z,103233.41
2023-02-27T19:07:47.387Z,103241.44
2023-02-27T19:10:15.314Z,103242.25
2023-02-27T19:12:42.807Z,103245.03
2023-02-27T19:15:12.347Z,103248.06
2023-02-27T19:17:39.818Z,103246.38
2023-02-27T19:20:07.780Z,103259.38
2023-02-27T19:22:34.925Z,103250.50
2023-02-27T19:25:02.045Z,103250.81
2023-02-27T19:27:29.065Z,103249.66
2023-02-27T19:29:55.739Z,103255.47
2023-02-27T19:32:23.070Z,103248.25
2023-02-27T19:34:49.896Z,103257.41
2023-02-27T19:37:17.698Z,103252.94
2023-02-27T19:39:45.576Z,103265.38
2023-02-27T19:42:13.204Z,103248.81
2023-02-27T19:44:40.721Z,103250.72
2023-02-27T19:47:08.178Z,103255.47
2023-02-27T19:49:35.535Z,103249.06
2023-02-27T19:52:03.181Z,103254.56
2023-02-27T19:54:30.824Z,103260.63
2023-02-27T19:56:57.968Z,103258.94
2023-02-27T19:59:25.510Z,103257.28
2023-02-27T20:01:53.584Z,103262.25
2023-02-27T20:04:22.690Z,103258.38
2023-02-27T20:06:53.325Z,103253.09
2023-02-27T20:09:21.209Z,103260.09
2023-02-27T20:11:52.711Z,103260.91
2023-02-27T20:14:20.090Z,103261.66
2023-02-27T20:16:47.325Z,103262.75
2023-02-27T20:19:16.706Z,103259.72
2023-02-27T20:21:44.636Z,103263.31
2023-02-27T20:24:12.784Z,103265.47
2023-02-27T20:26:42.644Z,103263.03
2023-02-27T20:29:15.153Z,103261.34
2023-02-27T20:31:45.849Z,103258.88
2023-02-27T20:34:15.984Z,103258.06
2023-02-27T20:36:43.875Z,103260.53
2023-02-27T20:39:11.894Z,103264.91
2023-02-27T20:41:40.375Z,103262.75
2023-02-27T20:44:11.687Z,103265.47
2023-02-27T20:46:41.086Z,103264.63
2023-02-27T20:49:08.686Z,103266.59
2023-02-27T20:51:37.756Z,103261.56
2023-02-27T20:54:08.048Z,103270.06
2023-02-27T20:56:38.645Z,103257.41
2023-02-27T20:59:08.468Z,103259.41
2023-02-27T21:01:38.278Z,103256.06
2023-02-27T21:04:06.251Z,103262.66
2023-02-27T21:06:35.057Z,103259.31
2023-02-27T21:09:05.526Z,103265.16
2023-02-27T21:11:33.435Z,103265.69
2023-02-27T21:14:05.230Z,103265.09
2023-02-27T21:16:32.815Z,103271.72
2023-02-27T21:18:59.988Z,103270.88
2023-02-27T21:21:30.542Z,103258.28
2023-02-27T21:23:58.369Z,103265.75
2023-02-27T21:26:28.684Z,103258.31
2023-02-27T21:28:58.337Z,103266.31
2023-02-27T21:31:27.781Z,103275.19
2023-02-27T21:33:55.248Z,103266.38
2023-02-27T21:36:26.861Z,103259.78
2023-02-27T21:38:59.071Z,103269.25
2023-02-27T21:41:27.211Z,103269.47
2023-02-27T21:44:14.900Z,103265.38
2023-02-27T21:46:42.126Z,103273.09
2023-02-27T21:49:15.604Z,103271.91
2023-02-27T21:51:43.272Z,103276.31
2023-02-27T21:54:12.049Z,103269.66
2023-02-27T21:56:42.003Z,103269.94
2023-02-27T21:59:10.050Z,103262.47
2023-02-27T22:01:37.649Z,103273.72
2023-02-27T22:04:05.374Z,103278.34
2023-02-27T22:06:34.203Z,103276.47
2023-02-27T22:09:05.228Z,103285.88
2023-02-27T22:11:33.362Z,103284.69
2023-02-27T22:14:00.868Z,103279.47
2023-02-27T22:16:28.417Z,103268.19
2023-02-27T22:18:55.649Z,103272.28
2023-02-27T22:21:25.467Z,103274.16
2023-02-27T22:23:53.705Z,103278.25
2023-02-27T22:26:24.472Z,103279.59
2023-02-27T22:28:52.746Z,103278.41
2023-02-27T22:31:23.927Z,103281.44
2023-02-27T22:33:54.365Z,103284.72
2023-02-27T22:36:27.008Z,103291.13
2023-02-27T22:38:54.098Z,103292.97
2023-02-27T22:41:33.728Z,103292.97
2023-02-27T22:44:02.452Z,103291.91
2023-02-27T22:46:32.302Z,103297.47
2023-02-27T22:49:23.291Z,103291.94
2023-02-27T22:51:52.241Z,103295.25
2023-02-27T22:54:21.324Z,103292.38
2023-02-27T22:56:50.461Z,103300.59
2023-02-27T22:59:18.099Z,103290.44
2023-02-27T23:01:45.127Z,103302.06
2023-02-27T23:04:12.868Z,103293.56
2023-02-27T23:06:40.928Z,103294.47
2023-02-27T23:09:11.964Z,103302.81
2023-02-27T23:11:39.303Z,103306.78
2023-02-27T23:14:06.322Z,103304.03
2023-02-27T23:16:33.564Z,103296.69
2023-02-27T23:19:00.962Z,103302.28
2023-02-27T23:21:36.849Z,103302.06
2023-02-27T23:24:05.856Z,103304.19
2023-02-27T23:26:36.005Z,103287.66
2023-02-27T23:29:03.232Z,103292.63
2023-02-27T23:31:32.212Z,103299.81
2023-02-27T23:34:00.782Z,103300.38
2023-02-27T23:36:27.754Z,103292.63
2023-02-27T23:38:55.032Z,103300.34
2023-02-27T23:41:22.174Z,103305.59
2023-02-27T23:43:54.424Z,103313.06
2023-02-27T23:46:21.801Z,103303.38
2023-02-27T23:48:48.873Z,103302.84
2023-02-27T23:51:16.124Z,103313.09
2023-02-27T23:53:43.304Z,103308.91
2023-02-27T23:56:15.577Z,103312.78
2023-02-27T23:58:42.698Z,103308.94
